createdAt,value
2017-07-24T00:00:49.414Z,0
2017-07-24T00:01:58.377Z,0
2017-07-24T00:03:07.656Z,0
2017-07-24T00:04:16.621Z,0
2017-07-24T00:05:25.582Z,0
2017-07-24T00:06:34.866Z,0
2017-07-24T00:07:43.821Z,0
2017-07-24T00:08:52.778Z,0
2017-07-24T00:10:01.732Z,0
2017-07-24T00:11:10.691Z,0
2017-07-24T00:12:19.974Z,0
2017-07-24T00:13:28.944Z,0
2017-07-24T00:14:37.899Z,0
2017-07-24T00:15:46.854Z,0
2017-07-24T00:16:55.860Z,0
2017-07-24T00:18:04.830Z,0
2017-07-24T00:19:13.789Z,0
2017-07-24T00:20:22.741Z,0
2017-07-24T00:21:32.019Z,0
2017-07-24T00:22:40.976Z,0
2017-07-24T00:23:49.929Z,0
2017-07-24T00:24:58.887Z,0
2017-07-24T00:26:07.863Z,0
2017-07-24T00:27:17.154Z,0
2017-07-24T00:28:26.114Z,0
2017-07-24T00:29:35.068Z,0
2017-07-24T00:30:44.024Z,0
2017-07-24T00:31:52.979Z,0
2017-07-24T00:33:01.936Z,0
2017-07-24T00:34:10.902Z,0
2017-07-24T00:35:19.852Z,0
2017-07-24T00:36:28.805Z,0
2017-07-24T00:37:37.789Z,0
2017-07-24T00:38:46.752Z,0
2017-07-24T00:39:55.712Z,0
2017-07-24T00:41:04.991Z,0
2017-07-24T00:42:13.945Z,0
2017-07-24T00:43:22.904Z,0
2017-07-24T00:44:31.864Z,0
2017-07-24T00:45:40.821Z,0
2017-07-24T00:46:49.779Z,0
2017-07-24T00:47:58.744Z,0
2017-07-24T00:49:07.696Z,0
2017-07-24T00:50:16.987Z,0
2017-07-24T00:51:25.935Z,0
2017-07-24T00:52:34.887Z,0
2017-07-24T00:53:43.840Z,0
2017-07-24T00:54:52.806Z,0
2017-07-24T00:56:01.768Z,0
2017-07-24T00:57:10.722Z,0
2017-07-24T00:58:19.682Z,0
2017-07-24T00:59:28.641Z,0
2017-07-24T01:00:37.597Z,0
2017-07-24T01:01:46.551Z,0
2017-07-24T01:02:55.511Z,0
2017-07-24T01:04:04.474Z,0
2017-07-24T01:05:13.435Z,0
2017-07-24T01:06:22.415Z,0
2017-07-24T01:07:31.386Z,0
2017-07-24T01:08:40.355Z,0
2017-07-24T01:09:49.323Z,0
2017-07-24T01:10:58.277Z,0
2017-07-24T01:12:07.251Z,0
2017-07-24T01:13:16.205Z,0
2017-07-24T01:14:25.162Z,0
2017-07-24T01:15:34.127Z,0
2017-07-24T01:16:43.088Z,0
2017-07-24T01:17:52.041Z,0
2017-07-24T01:19:01.002Z,0
2017-07-24T01:20:09.962Z,0
2017-07-24T01:21:18.917Z,0
2017-07-24T01:22:27.886Z,0
2017-07-24T01:23:36.849Z,0
2017-07-24T01:24:45.810Z,0
2017-07-24T01:25:55.417Z,0
2017-07-24T01:27:04.365Z,0
2017-07-24T01:28:13.333Z,0
2017-07-24T01:29:22.287Z,0
2017-07-24T01:30:31.246Z,0
2017-07-24T01:31:40.198Z,0
2017-07-24T01:32:49.153Z,0
2017-07-24T01:33:58.116Z,0
2017-07-24T01:35:07.093Z,0
2017-07-24T01:36:16.053Z,0
2017-07-24T01:37:25.004Z,0
2017-07-24T01:38:34.277Z,0
2017-07-24T01:39:43.234Z,0
2017-07-24T01:40:52.191Z,0
2017-07-24T01:42:01.147Z,0
2017-07-24T01:43:10.121Z,0
2017-07-24T01:44:19.408Z,0
2017-07-24T01:45:28.363Z,0
2017-07-24T01:46:37.322Z,0
2017-07-24T01:47:46.282Z,0
2017-07-24T01:48:55.240Z,0
2017-07-24T01:50:04.196Z,0
2017-07-24T01:51:13.167Z,0
2017-07-24T01:52:22.129Z,0
2017-07-24T01:53:31.081Z,0
2017-07-24T01:54:40.041Z,0
2017-07-24T01:55:49.004Z,0
2017-07-24T01:56:57.959Z,0
2017-07-24T01:58:07.244Z,0
2017-07-24T01:59:16.844Z,0
2017-07-24T02:00:25.799Z,0
2017-07-24T02:01:34.760Z,0
2017-07-24T02:02:43.710Z,0
2017-07-24T02:03:52.662Z,0
2017-07-24T02:05:01.626Z,0
2017-07-24T02:06:10.912Z,0
2017-07-24T02:07:19.872Z,0
2017-07-24T02:08:28.830Z,0
2017-07-24T02:09:37.801Z,0
2017-07-24T02:10:46.757Z,0
2017-07-24T02:11:55.722Z,0
2017-07-24T02:13:04.694Z,0
2017-07-24T02:14:13.647Z,0
2017-07-24T02:15:22.929Z,0
2017-07-24T02:16:31.892Z,0
2017-07-24T02:17:40.848Z,0
2017-07-24T02:18:50.128Z,0
2017-07-24T02:19:59.096Z,0
2017-07-24T02:21:08.061Z,0
2017-07-24T02:22:17.019Z,0
2017-07-24T02:23:25.981Z,0
2017-07-24T02:24:35.261Z,0
2017-07-24T02:25:44.214Z,0
2017-07-24T02:26:53.500Z,0
2017-07-24T02:28:02.462Z,0
2017-07-24T02:29:11.422Z,0
2017-07-24T02:30:20.381Z,0
2017-07-24T02:31:29.345Z,0
2017-07-24T02:32:38.302Z,0
2017-07-24T02:33:47.587Z,0
2017-07-24T02:34:56.549Z,0
2017-07-24T02:36:05.517Z,0
2017-07-24T02:37:14.509Z,0
2017-07-24T02:38:23.471Z,0
2017-07-24T02:39:32.430Z,0
2017-07-24T02:40:41.397Z,0
2017-07-24T02:41:50.348Z,0
2017-07-24T02:42:59.299Z,0
2017-07-24T02:44:08.271Z,0
2017-07-24T02:45:17.225Z,0
2017-07-24T02:46:26.187Z,0
2017-07-24T02:47:35.461Z,0
2017-07-24T02:48:44.426Z,0
2017-07-24T02:49:53.721Z,0
2017-07-24T02:51:02.682Z,0
2017-07-24T02:52:11.654Z,0
2017-07-24T02:53:20.607Z,0
2017-07-24T02:54:29.565Z,0
2017-07-24T02:55:38.516Z,0
2017-07-24T02:56:47.480Z,0
2017-07-24T02:57:56.442Z,0
2017-07-24T02:59:05.414Z,0
2017-07-24T03:00:14.701Z,0
2017-07-24T03:01:23.671Z,0
2017-07-24T03:02:32.636Z,0
2017-07-24T03:03:41.600Z,0
2017-07-24T03:04:50.903Z,0
2017-07-24T03:05:59.860Z,0
2017-07-24T03:07:09.154Z,0
2017-07-24T03:08:18.109Z,0
2017-07-24T03:09:27.090Z,0
2017-07-24T03:10:36.359Z,0
2017-07-24T03:11:45.317Z,0
2017-07-24T03:12:54.270Z,0
2017-07-24T03:14:03.234Z,0
2017-07-24T03:15:12.189Z,0
2017-07-24T03:16:21.140Z,0
2017-07-24T03:17:30.101Z,0
2017-07-24T03:18:39.055Z,0
2017-07-24T03:19:48.023Z,0
2017-07-24T03:20:56.986Z,0
2017-07-24T03:22:05.941Z,0
2017-07-24T03:23:14.893Z,0
2017-07-24T03:24:23.858Z,0
2017-07-24T03:25:32.803Z,0
2017-07-24T03:26:41.760Z,0
2017-07-24T03:27:50.722Z,0
2017-07-24T03:28:59.689Z,0
2017-07-24T03:30:09.020Z,0
2017-07-24T03:31:17.993Z,0
2017-07-24T03:32:26.946Z,0
2017-07-24T03:33:35.898Z,0
2017-07-24T03:34:44.854Z,0
2017-07-24T03:35:53.804Z,0
2017-07-24T03:37:02.764Z,0
2017-07-24T03:38:11.717Z,0
2017-07-24T03:39:20.686Z,0
2017-07-24T03:40:29.647Z,0
2017-07-24T03:41:38.608Z,0
2017-07-24T03:42:47.564Z,0
2017-07-24T03:43:56.534Z,0
2017-07-24T03:45:05.500Z,0
2017-07-24T03:46:14.463Z,0
2017-07-24T03:47:23.743Z,0
2017-07-24T03:48:32.704Z,0
2017-07-24T03:49:41.983Z,0
2017-07-24T03:50:50.934Z,5
2017-07-24T03:51:59.897Z,5
2017-07-24T03:53:08.862Z,5
2017-07-24T03:54:17.814Z,5
2017-07-24T03:55:26.863Z,5
2017-07-24T03:56:35.825Z,5
2017-07-24T03:57:44.782Z,5
2017-07-24T03:58:53.733Z,5
2017-07-24T04:00:02.693Z,5
2017-07-24T04:01:11.654Z,5
2017-07-24T04:02:20.613Z,5
2017-07-24T04:03:29.573Z,5
2017-07-24T04:04:38.552Z,5
2017-07-24T04:05:47.508Z,10
2017-07-24T04:06:56.467Z,10
2017-07-24T04:08:05.432Z,10
2017-07-24T04:09:14.388Z,10
2017-07-24T04:10:23.357Z,10
2017-07-24T04:11:32.316Z,10
2017-07-24T04:12:41.274Z,10
2017-07-24T04:13:50.227Z,10
2017-07-24T04:14:59.176Z,15
2017-07-24T04:16:08.132Z,15
2017-07-24T04:17:17.089Z,15
2017-07-24T04:18:26.048Z,15
2017-07-24T04:19:35.335Z,15
2017-07-24T04:20:44.299Z,15
2017-07-24T04:21:53.579Z,20
2017-07-24T04:23:02.534Z,20
2017-07-24T04:24:11.494Z,20
2017-07-24T04:25:20.452Z,20
2017-07-24T04:26:29.413Z,20
2017-07-24T04:27:38.374Z,20
2017-07-24T04:28:47.327Z,20
2017-07-24T04:29:56.301Z,20
2017-07-24T04:31:05.252Z,25
2017-07-24T04:32:14.221Z,25
2017-07-24T04:33:23.532Z,25
2017-07-24T04:34:32.483Z,25
2017-07-24T04:35:41.437Z,25
2017-07-24T04:36:50.720Z,25
2017-07-24T04:37:59.675Z,25
2017-07-24T04:39:08.633Z,25
2017-07-24T04:40:17.599Z,30
2017-07-24T04:41:26.565Z,30
2017-07-24T04:42:35.525Z,35
2017-07-24T04:43:44.827Z,35
2017-07-24T04:44:53.790Z,30
2017-07-24T04:46:02.753Z,30
2017-07-24T04:47:11.701Z,30
2017-07-24T04:48:20.657Z,30
2017-07-24T04:49:29.610Z,25
2017-07-24T04:50:38.568Z,25
2017-07-24T04:51:47.535Z,25
2017-07-24T04:52:56.495Z,25
2017-07-24T04:54:05.450Z,25
2017-07-24T04:55:14.413Z,25
2017-07-24T04:56:23.369Z,25
2017-07-24T04:57:32.323Z,25
2017-07-24T04:58:41.281Z,30
2017-07-24T04:59:50.251Z,30
2017-07-24T05:00:59.216Z,30
2017-07-24T05:02:08.173Z,30
2017-07-24T05:03:17.144Z,30
2017-07-24T05:04:26.098Z,30
2017-07-24T05:05:35.049Z,30
2017-07-24T05:06:44.015Z,30
2017-07-24T05:07:52.979Z,30
2017-07-24T05:09:01.933Z,30
2017-07-24T05:10:10.894Z,30
2017-07-24T05:11:19.844Z,30
2017-07-24T05:12:28.805Z,30
2017-07-24T05:13:37.778Z,30
2017-07-24T05:14:47.380Z,30
2017-07-24T05:15:56.656Z,30
2017-07-24T05:17:05.622Z,30
2017-07-24T05:18:14.578Z,35
2017-07-24T05:19:23.531Z,35
2017-07-24T05:20:32.486Z,35
2017-07-24T05:21:41.444Z,35
2017-07-24T05:22:50.407Z,40
2017-07-24T05:23:59.690Z,40
2017-07-24T05:25:08.981Z,40
2017-07-24T05:26:17.938Z,40
2017-07-24T05:27:26.889Z,45
2017-07-24T05:28:35.852Z,40
2017-07-24T05:29:44.806Z,45
2017-07-24T05:30:53.761Z,45
2017-07-24T05:32:02.730Z,45
2017-07-24T05:33:11.708Z,45
2017-07-24T05:34:20.667Z,45
2017-07-24T05:35:29.614Z,45
2017-07-24T05:36:38.576Z,40
2017-07-24T05:37:47.537Z,40
2017-07-24T05:38:56.497Z,40
2017-07-24T05:40:05.450Z,40
2017-07-24T05:41:14.398Z,40
2017-07-24T05:42:23.363Z,45
2017-07-24T05:43:32.315Z,45
2017-07-24T05:44:41.272Z,40
2017-07-24T05:45:50.235Z,45
2017-07-24T05:46:59.206Z,40
2017-07-24T05:48:08.158Z,45
2017-07-24T05:49:17.109Z,45
2017-07-24T05:50:26.057Z,40
2017-07-24T05:51:35.017Z,40
2017-07-24T05:52:43.972Z,40
2017-07-24T05:53:52.931Z,40
2017-07-24T05:55:01.887Z,40
2017-07-24T05:56:10.847Z,40
2017-07-24T05:57:20.129Z,45
2017-07-24T05:58:29.091Z,40
2017-07-24T05:59:38.044Z,45
2017-07-24T06:00:47.006Z,45
2017-07-24T06:01:55.959Z,45
2017-07-24T06:03:04.909Z,45
2017-07-24T06:04:14.187Z,40
2017-07-24T06:05:23.147Z,40
2017-07-24T06:06:32.100Z,40
2017-07-24T06:07:41.063Z,45
2017-07-24T06:08:50.017Z,40
2017-07-24T06:09:58.982Z,45
2017-07-24T06:11:07.940Z,45
2017-07-24T06:12:17.223Z,45
2017-07-24T06:13:26.181Z,45
2017-07-24T06:14:35.139Z,50
2017-07-24T06:15:44.100Z,50
2017-07-24T06:16:53.061Z,50
2017-07-24T06:18:02.015Z,50
2017-07-24T06:19:10.979Z,50
2017-07-24T06:20:19.931Z,50
2017-07-24T06:21:28.888Z,50
2017-07-24T06:22:37.871Z,50
2017-07-24T06:23:46.827Z,50
2017-07-24T06:24:55.792Z,50
2017-07-24T06:26:04.747Z,50
2017-07-24T06:27:13.702Z,45
2017-07-24T06:28:22.659Z,50
2017-07-24T06:29:31.616Z,50
2017-07-24T06:30:40.580Z,50
2017-07-24T06:31:49.535Z,50
2017-07-24T06:32:58.530Z,55
2017-07-24T06:34:07.481Z,65
2017-07-24T06:35:16.764Z,65
2017-07-24T06:36:25.721Z,60
2017-07-24T06:37:34.688Z,55
2017-07-24T06:38:43.652Z,55
2017-07-24T06:39:52.617Z,55
2017-07-24T06:41:01.580Z,55
2017-07-24T06:42:10.873Z,55
2017-07-24T06:43:19.835Z,55
2017-07-24T06:44:28.798Z,55
2017-07-24T06:45:37.761Z,55
2017-07-24T06:46:47.045Z,60
2017-07-24T06:47:55.994Z,60
2017-07-24T06:49:04.950Z,60
2017-07-24T06:50:13.915Z,60
2017-07-24T06:51:23.203Z,65
2017-07-24T06:52:32.161Z,70
2017-07-24T06:53:41.123Z,65
2017-07-24T06:54:50.085Z,65
2017-07-24T06:55:59.048Z,65
2017-07-24T06:57:08.010Z,70
2017-07-24T06:58:16.970Z,70
2017-07-24T06:59:25.949Z,70
2017-07-24T07:00:34.901Z,70
2017-07-24T07:01:44.190Z,70
2017-07-24T07:02:53.153Z,70
2017-07-24T07:04:02.108Z,70
2017-07-24T07:05:11.471Z,70
2017-07-24T07:06:21.078Z,70
2017-07-24T07:07:30.038Z,70
2017-07-24T07:08:38.999Z,75
2017-07-24T07:09:47.959Z,70
2017-07-24T07:10:56.913Z,75
2017-07-24T07:12:05.866Z,75
2017-07-24T07:13:14.820Z,75
2017-07-24T07:14:23.777Z,70
2017-07-24T07:15:33.063Z,70
2017-07-24T07:16:42.026Z,70
2017-07-24T07:17:50.982Z,70
2017-07-24T07:18:59.942Z,80
2017-07-24T07:20:08.907Z,80
2017-07-24T07:21:17.872Z,75
2017-07-24T07:22:27.150Z,80
2017-07-24T07:23:36.110Z,80
2017-07-24T07:24:45.066Z,80
2017-07-24T07:25:54.021Z,85
2017-07-24T07:27:02.981Z,80
2017-07-24T07:28:11.928Z,80
2017-07-24T07:29:20.882Z,85
2017-07-24T07:30:29.838Z,85
2017-07-24T07:31:38.787Z,85
2017-07-24T07:32:47.741Z,85
2017-07-24T07:33:56.700Z,85
2017-07-24T07:35:05.660Z,90
2017-07-24T07:36:14.943Z,90
2017-07-24T07:37:23.900Z,85
2017-07-24T07:38:32.858Z,85
2017-07-24T07:39:41.826Z,90
2017-07-24T07:40:50.780Z,90
2017-07-24T07:41:59.741Z,90
2017-07-24T07:43:08.706Z,90
2017-07-24T07:44:17.667Z,90
2017-07-24T07:45:26.644Z,90
2017-07-24T07:46:35.616Z,95
2017-07-24T07:47:44.579Z,90
2017-07-24T07:48:53.527Z,90
2017-07-24T07:50:02.492Z,90
2017-07-24T07:51:11.456Z,85
2017-07-24T07:52:20.417Z,90
2017-07-24T07:53:29.366Z,90
2017-07-24T07:54:38.325Z,85
2017-07-24T07:55:47.300Z,85
2017-07-24T07:56:56.255Z,85
2017-07-24T07:58:05.213Z,80
2017-07-24T07:59:14.493Z,80
2017-07-24T08:00:23.453Z,80
2017-07-24T08:01:32.408Z,85
2017-07-24T08:02:41.367Z,85
2017-07-24T08:03:50.329Z,85
2017-07-24T08:04:59.291Z,80
2017-07-24T08:06:08.255Z,80
2017-07-24T08:07:17.550Z,75
2017-07-24T08:08:26.833Z,70
2017-07-24T08:09:35.786Z,75
2017-07-24T08:10:44.755Z,75
2017-07-24T08:11:53.719Z,80
2017-07-24T08:13:02.688Z,85
2017-07-24T08:14:11.651Z,85
2017-07-24T08:15:20.621Z,85
2017-07-24T08:16:29.613Z,80
2017-07-24T08:17:38.570Z,85
2017-07-24T08:18:47.529Z,90
2017-07-24T08:19:56.495Z,95
2017-07-24T08:21:05.450Z,85
2017-07-24T08:22:14.419Z,85
2017-07-24T08:23:23.387Z,80
2017-07-24T08:24:32.363Z,80
2017-07-24T08:25:41.318Z,80
2017-07-24T08:26:50.281Z,75
2017-07-24T08:27:59.238Z,75
2017-07-24T08:29:08.207Z,75
2017-07-24T08:30:17.171Z,75
2017-07-24T08:31:26.142Z,75
2017-07-24T08:32:35.109Z,75
2017-07-24T08:33:44.072Z,70
2017-07-24T08:34:53.029Z,70
2017-07-24T08:36:02.311Z,70
2017-07-24T08:37:11.603Z,70
2017-07-24T08:38:20.568Z,70
2017-07-24T08:39:29.528Z,55
2017-07-24T08:40:38.817Z,80
2017-07-24T08:41:47.782Z,80
2017-07-24T08:42:56.742Z,75
2017-07-24T08:44:05.703Z,80
2017-07-24T08:45:14.658Z,70
2017-07-24T08:46:23.615Z,75
2017-07-24T08:47:32.577Z,55
2017-07-24T08:48:41.534Z,50
2017-07-24T08:49:50.488Z,50
2017-07-24T08:50:59.454Z,60
2017-07-24T08:52:08.414Z,70
2017-07-24T08:53:17.383Z,65
2017-07-24T08:54:26.662Z,55
2017-07-24T08:55:35.620Z,55
2017-07-24T08:56:44.573Z,45
2017-07-24T08:57:53.547Z,45
2017-07-24T08:59:02.504Z,45
2017-07-24T09:00:11.465Z,45
2017-07-24T09:01:20.422Z,50
2017-07-24T09:02:29.383Z,50
2017-07-24T09:03:38.340Z,55
2017-07-24T09:04:47.300Z,55
2017-07-24T09:05:56.262Z,50
2017-07-24T09:07:05.228Z,50
2017-07-24T09:08:14.514Z,50
2017-07-24T09:09:23.472Z,55
2017-07-24T09:10:32.438Z,55
2017-07-24T09:11:41.760Z,55
2017-07-24T09:12:50.714Z,65
2017-07-24T09:13:59.673Z,60
2017-07-24T09:15:08.632Z,70
2017-07-24T09:16:17.587Z,90
2017-07-24T09:17:26.549Z,95
2017-07-24T09:18:35.513Z,105
2017-07-24T09:19:44.472Z,85
2017-07-24T09:20:53.428Z,95
2017-07-24T09:22:02.386Z,105
2017-07-24T09:23:11.341Z,100
2017-07-24T09:24:20.290Z,95
2017-07-24T09:25:29.261Z,95
2017-07-24T09:26:38.222Z,100
2017-07-24T09:27:47.500Z,80
2017-07-24T09:28:56.465Z,80
2017-07-24T09:30:05.424Z,75
2017-07-24T09:31:14.708Z,70
2017-07-24T09:32:23.666Z,60
2017-07-24T09:33:32.957Z,50
2017-07-24T09:34:41.924Z,45
2017-07-24T09:35:50.889Z,45
2017-07-24T09:36:59.859Z,45
2017-07-24T09:38:08.821Z,55
2017-07-24T09:39:17.783Z,70
2017-07-24T09:40:26.748Z,80
2017-07-24T09:41:35.722Z,75
2017-07-24T09:42:45.009Z,75
2017-07-24T09:43:53.970Z,70
2017-07-24T09:45:02.942Z,80
2017-07-24T09:46:11.933Z,90
2017-07-24T09:47:20.896Z,95
2017-07-24T09:48:29.861Z,95
2017-07-24T09:49:39.147Z,95
2017-07-24T09:50:48.117Z,100
2017-07-24T09:51:57.073Z,95
2017-07-24T09:53:06.030Z,90
2017-07-24T09:54:14.990Z,85
2017-07-24T09:55:23.951Z,85
2017-07-24T09:56:32.913Z,90
2017-07-24T09:57:41.886Z,95
2017-07-24T09:58:50.846Z,95
2017-07-24T09:59:59.813Z,95
2017-07-24T10:01:09.098Z,95
2017-07-24T10:02:18.050Z,85
2017-07-24T10:03:27.008Z,80
2017-07-24T10:04:35.970Z,80
2017-07-24T10:05:44.932Z,85
2017-07-24T10:06:53.888Z,85
2017-07-24T10:08:03.170Z,90
2017-07-24T10:09:12.131Z,100
2017-07-24T10:10:21.417Z,100
2017-07-24T10:11:30.390Z,110
2017-07-24T10:12:39.348Z,110
2017-07-24T10:13:48.316Z,115
2017-07-24T10:14:57.271Z,120
2017-07-24T10:16:06.230Z,120
2017-07-24T10:17:15.527Z,120
2017-07-24T10:18:24.495Z,115
2017-07-24T10:19:33.458Z,115
2017-07-24T10:20:42.432Z,110
2017-07-24T10:21:51.396Z,110
2017-07-24T10:23:00.351Z,110
2017-07-24T10:24:09.311Z,110
2017-07-24T10:25:18.356Z,100
2017-07-24T10:26:27.318Z,105
2017-07-24T10:27:36.281Z,110
2017-07-24T10:28:45.244Z,115
2017-07-24T10:29:54.201Z,100
2017-07-24T10:31:03.165Z,100
2017-07-24T10:32:12.127Z,100
2017-07-24T10:33:21.088Z,90
2017-07-24T10:34:30.048Z,95
2017-07-24T10:35:39.029Z,95
2017-07-24T10:36:48.000Z,95
2017-07-24T10:37:57.296Z,90
2017-07-24T10:39:06.255Z,85
2017-07-24T10:40:15.216Z,85
2017-07-24T10:41:24.178Z,100
2017-07-24T10:42:33.136Z,110
2017-07-24T10:43:42.093Z,105
2017-07-24T10:44:51.044Z,100
2017-07-24T10:46:00.014Z,100
2017-07-24T10:47:08.976Z,95
2017-07-24T10:48:17.946Z,95
2017-07-24T10:49:26.914Z,95
2017-07-24T10:50:35.880Z,100
2017-07-24T10:51:44.848Z,95
2017-07-24T10:52:53.804Z,100
2017-07-24T10:54:02.763Z,100
2017-07-24T10:55:11.726Z,105
2017-07-24T10:56:20.695Z,110
2017-07-24T10:57:29.654Z,110
2017-07-24T10:58:38.614Z,105
2017-07-24T10:59:47.580Z,110
2017-07-24T11:00:56.547Z,110
2017-07-24T11:02:05.509Z,100
2017-07-24T11:03:14.473Z,100
2017-07-24T11:04:23.751Z,100
2017-07-24T11:05:32.707Z,100
2017-07-24T11:06:41.676Z,100
2017-07-24T11:07:50.642Z,95
2017-07-24T11:08:59.612Z,90
2017-07-24T11:10:08.894Z,90
2017-07-24T11:11:17.852Z,90
2017-07-24T11:12:26.806Z,95
2017-07-24T11:13:35.773Z,95
2017-07-24T11:14:44.733Z,90
2017-07-24T11:15:53.695Z,85
2017-07-24T11:17:02.654Z,85
2017-07-24T11:18:11.614Z,85
2017-07-24T11:19:20.570Z,90
2017-07-24T11:20:29.541Z,85
2017-07-24T11:21:38.502Z,85
2017-07-24T11:22:47.461Z,85
2017-07-24T11:23:56.411Z,90
2017-07-24T11:25:05.371Z,90
2017-07-24T11:26:14.325Z,95
2017-07-24T11:27:23.281Z,100
2017-07-24T11:28:32.249Z,100
2017-07-24T11:29:41.202Z,105
2017-07-24T11:30:50.174Z,100
2017-07-24T11:31:59.134Z,95
2017-07-24T11:33:08.091Z,95
2017-07-24T11:34:17.066Z,95
2017-07-24T11:35:26.028Z,100
2017-07-24T11:36:34.981Z,95
2017-07-24T11:37:43.934Z,90
2017-07-24T11:38:52.892Z,90
2017-07-24T11:40:01.850Z,85
2017-07-24T11:41:10.815Z,85
2017-07-24T11:42:19.780Z,85
2017-07-24T11:43:28.747Z,90
2017-07-24T11:44:37.706Z,100
2017-07-24T11:45:46.674Z,95
2017-07-24T11:46:55.628Z,90
2017-07-24T11:48:04.594Z,85
2017-07-24T11:49:13.893Z,85
2017-07-24T11:50:22.856Z,85
2017-07-24T11:51:32.150Z,85
2017-07-24T11:52:41.109Z,85
2017-07-24T11:53:50.071Z,85
2017-07-24T11:54:59.035Z,85
2017-07-24T11:56:08.332Z,85
2017-07-24T11:57:17.291Z,85
2017-07-24T11:58:26.255Z,85
2017-07-24T11:59:35.218Z,80
2017-07-24T12:00:44.174Z,80
2017-07-24T12:01:53.130Z,80
2017-07-24T12:03:02.091Z,80
2017-07-24T12:04:11.387Z,80
2017-07-24T12:05:20.385Z,80
2017-07-24T12:06:29.347Z,85
2017-07-24T12:07:38.307Z,85
2017-07-24T12:08:47.585Z,85
2017-07-24T12:09:56.547Z,80
2017-07-24T12:11:05.508Z,80
2017-07-24T12:12:14.482Z,80
2017-07-24T12:13:23.453Z,80
2017-07-24T12:14:32.409Z,80
2017-07-24T12:15:41.366Z,80
2017-07-24T12:16:50.325Z,80
2017-07-24T12:17:59.294Z,85
2017-07-24T12:19:08.270Z,90
2017-07-24T12:20:17.227Z,90
2017-07-24T12:21:26.196Z,85
2017-07-24T12:22:35.486Z,85
2017-07-24T12:23:44.449Z,85
2017-07-24T12:24:53.732Z,85
2017-07-24T12:26:03.012Z,80
2017-07-24T12:27:11.973Z,80
2017-07-24T12:28:20.927Z,85
2017-07-24T12:29:29.891Z,80
2017-07-24T12:30:38.846Z,80
2017-07-24T12:31:47.800Z,80
2017-07-24T12:32:56.761Z,80
2017-07-24T12:34:05.741Z,80
2017-07-24T12:35:14.716Z,80
2017-07-24T12:36:23.685Z,80
2017-07-24T12:37:32.653Z,85
2017-07-24T12:38:41.619Z,80
2017-07-24T12:39:50.589Z,80
2017-07-24T12:40:59.551Z,85
2017-07-24T12:42:08.512Z,95
2017-07-24T12:43:17.459Z,95
2017-07-24T12:44:26.419Z,90
2017-07-24T12:45:35.392Z,90
2017-07-24T12:46:44.351Z,95
2017-07-24T12:47:53.308Z,95
2017-07-24T12:49:02.263Z,100
2017-07-24T12:50:11.558Z,95
2017-07-24T12:51:20.516Z,90
2017-07-24T12:52:29.477Z,95
2017-07-24T12:53:38.450Z,85
2017-07-24T12:54:47.739Z,85
2017-07-24T12:55:56.693Z,85
2017-07-24T12:57:05.659Z,80
2017-07-24T12:58:14.613Z,80
2017-07-24T12:59:23.581Z,80
2017-07-24T13:00:32.551Z,80
2017-07-24T13:01:41.531Z,80
2017-07-24T13:02:50.491Z,80
2017-07-24T13:03:59.452Z,80
2017-07-24T13:05:09.146Z,80
2017-07-24T13:06:18.110Z,80
2017-07-24T13:07:27.068Z,80
2017-07-24T13:08:36.351Z,75
2017-07-24T13:09:45.309Z,85
2017-07-24T13:10:54.273Z,80
2017-07-24T13:12:03.224Z,80
2017-07-24T13:13:12.184Z,75
2017-07-24T13:14:21.164Z,75
2017-07-24T13:15:30.125Z,75
2017-07-24T13:16:39.093Z,75
2017-07-24T13:17:48.062Z,70
2017-07-24T13:18:57.020Z,70
2017-07-24T13:20:05.981Z,70
2017-07-24T13:21:14.948Z,70
2017-07-24T13:22:24.230Z,75
2017-07-24T13:23:33.198Z,75
2017-07-24T13:24:42.475Z,80
2017-07-24T13:25:51.435Z,80
2017-07-24T13:27:00.412Z,80
2017-07-24T13:28:09.700Z,75
2017-07-24T13:29:18.662Z,70
2017-07-24T13:30:27.620Z,70
2017-07-24T13:31:36.577Z,65
2017-07-24T13:32:45.539Z,65
2017-07-24T13:33:54.510Z,65
2017-07-24T13:35:03.490Z,65
2017-07-24T13:36:12.450Z,60
2017-07-24T13:37:21.401Z,60
2017-07-24T13:38:30.369Z,60
2017-07-24T13:39:39.344Z,60
2017-07-24T13:40:48.647Z,60
2017-07-24T13:41:57.605Z,65
2017-07-24T13:43:06.571Z,65
2017-07-24T13:44:15.534Z,65
2017-07-24T13:45:24.495Z,65
2017-07-24T13:46:33.539Z,70
2017-07-24T13:47:42.503Z,70
2017-07-24T13:48:51.462Z,65
2017-07-24T13:50:00.427Z,65
2017-07-24T13:51:09.385Z,60
2017-07-24T13:52:18.349Z,60
2017-07-24T13:53:27.305Z,55
2017-07-24T13:54:36.255Z,55
2017-07-24T13:55:45.527Z,55
2017-07-24T13:56:54.497Z,55
2017-07-24T13:58:03.460Z,55
2017-07-24T13:59:12.423Z,55
2017-07-24T14:00:21.376Z,55
2017-07-24T14:01:30.339Z,50
2017-07-24T14:02:39.296Z,50
2017-07-24T14:03:48.257Z,50
2017-07-24T14:04:57.224Z,55
2017-07-24T14:06:06.193Z,55
2017-07-24T14:07:15.142Z,60
2017-07-24T14:08:24.104Z,65
2017-07-24T14:09:33.069Z,65
2017-07-24T14:10:42.032Z,65
2017-07-24T14:11:51.312Z,65
2017-07-24T14:13:00.270Z,65
2017-07-24T14:14:09.244Z,70
2017-07-24T14:15:18.204Z,75
2017-07-24T14:16:27.157Z,75
2017-07-24T14:17:36.119Z,70
2017-07-24T14:18:45.095Z,65
2017-07-24T14:19:54.057Z,65
2017-07-24T14:21:03.017Z,60
2017-07-24T14:22:11.986Z,60
2017-07-24T14:23:21.270Z,60
2017-07-24T14:24:30.228Z,65
2017-07-24T14:25:39.194Z,70
2017-07-24T14:26:48.147Z,65
2017-07-24T14:27:57.108Z,65
2017-07-24T14:29:06.071Z,65
2017-07-24T14:30:15.029Z,65
2017-07-24T14:31:24.321Z,70
2017-07-24T14:32:33.283Z,70
2017-07-24T14:33:42.240Z,65
2017-07-24T14:34:51.198Z,70
2017-07-24T14:36:00.151Z,65
2017-07-24T14:37:09.106Z,65
2017-07-24T14:38:18.065Z,65
2017-07-24T14:39:27.023Z,65
2017-07-24T14:40:35.993Z,65
2017-07-24T14:41:44.952Z,60
2017-07-24T14:42:53.924Z,60
2017-07-24T14:44:02.884Z,60
2017-07-24T14:45:11.844Z,65
2017-07-24T14:46:20.811Z,65
2017-07-24T14:47:29.771Z,60
2017-07-24T14:48:38.755Z,65
2017-07-24T14:49:47.714Z,65
2017-07-24T14:50:56.683Z,65
2017-07-24T14:52:05.979Z,60
2017-07-24T14:53:14.934Z,60
2017-07-24T14:54:23.892Z,60
2017-07-24T14:55:33.181Z,60
2017-07-24T14:56:42.143Z,60
2017-07-24T14:57:51.102Z,60
2017-07-24T14:59:00.055Z,60
2017-07-24T15:00:09.014Z,55
2017-07-24T15:01:17.975Z,55
2017-07-24T15:02:26.936Z,50
2017-07-24T15:03:35.899Z,50
2017-07-24T15:04:44.862Z,50
2017-07-24T15:05:53.817Z,45
2017-07-24T15:07:02.778Z,45
2017-07-24T15:08:11.740Z,45
2017-07-24T15:09:20.703Z,45
2017-07-24T15:10:29.665Z,45
2017-07-24T15:11:38.628Z,50
2017-07-24T15:12:47.613Z,50
2017-07-24T15:13:56.570Z,50
2017-07-24T15:15:05.532Z,50
2017-07-24T15:16:14.498Z,50
2017-07-24T15:17:23.457Z,55
2017-07-24T15:18:32.433Z,50
2017-07-24T15:19:41.399Z,50
2017-07-24T15:20:50.357Z,50
2017-07-24T15:21:59.327Z,50
2017-07-24T15:23:08.311Z,50
2017-07-24T15:24:17.288Z,50
2017-07-24T15:25:26.577Z,50
2017-07-24T15:26:35.867Z,50
2017-07-24T15:27:44.832Z,45
2017-07-24T15:28:53.791Z,45
2017-07-24T15:30:02.759Z,45
2017-07-24T15:31:11.713Z,45
2017-07-24T15:32:20.672Z,50
2017-07-24T15:33:29.629Z,50
2017-07-24T15:34:38.599Z,45
2017-07-24T15:35:47.555Z,45
2017-07-24T15:36:56.515Z,45
2017-07-24T15:38:05.480Z,45
2017-07-24T15:39:14.446Z,45
2017-07-24T15:40:23.409Z,45
2017-07-24T15:41:32.396Z,45
2017-07-24T15:42:41.380Z,45
2017-07-24T15:43:50.415Z,45
2017-07-24T15:44:59.715Z,40
2017-07-24T15:46:08.693Z,40
2017-07-24T15:47:17.671Z,40
2017-07-24T15:48:27.162Z,40
2017-07-24T15:49:36.386Z,40
2017-07-24T15:50:45.343Z,40
2017-07-24T15:51:54.298Z,40
2017-07-24T15:53:03.261Z,40
2017-07-24T15:54:12.224Z,35
2017-07-24T15:55:21.177Z,35
2017-07-24T15:56:30.460Z,35
2017-07-24T15:57:39.417Z,35
2017-07-24T15:58:48.385Z,35
2017-07-24T15:59:57.672Z,35
2017-07-24T16:01:06.959Z,35
2017-07-24T16:02:15.918Z,35
2017-07-24T16:03:24.878Z,35
2017-07-24T16:04:33.844Z,35
2017-07-24T16:05:43.134Z,35
2017-07-24T16:06:52.436Z,35
2017-07-24T16:08:01.413Z,35
2017-07-24T16:09:10.383Z,35
2017-07-24T16:10:19.337Z,30
2017-07-24T16:11:28.300Z,30
2017-07-24T16:12:37.261Z,30
2017-07-24T16:13:46.219Z,30
2017-07-24T16:14:55.182Z,30
2017-07-24T16:16:04.467Z,30
2017-07-24T16:17:13.755Z,30
2017-07-24T16:18:22.717Z,30
2017-07-24T16:19:31.681Z,25
2017-07-24T16:20:40.645Z,25
2017-07-24T16:21:50.241Z,25
2017-07-24T16:22:59.207Z,25
2017-07-24T16:24:08.176Z,25
2017-07-24T16:25:17.143Z,25
2017-07-24T16:26:26.119Z,25
2017-07-24T16:27:35.079Z,25
2017-07-24T16:28:44.051Z,25
2017-07-24T16:29:53.010Z,25
2017-07-24T16:31:01.975Z,25